KSANMMSD

Guest
Details From KSAN - San Diego Intl
To MMSD - LOS CABOS INTL
Flight Number -
Tags generated
Created
Modified
Stats Distance 742 nm / 1,374 km
Max Altitude 35,000 ft / 10,668 m
Waypoints 7
Social Downloads 3
Likes 0
Share VATSIM

Download

Looking for another format? Having issues loading an existing format? Contact us
Advertisement - Login to hide

Notes

Basic altitude profile: - Ascent Rate: 2500ft/min - Ascent Speed: 250kts - Cruise Altitude: 25000ft - Cruise Speed: 420kts - Descent Rate: 1500ft/min - Descent Speed: 250kts Options: - Use NATs: no - Use PACOTS: no - Use low airways: no - Use high airways: no

Route

KSAN 3100N11500W 2700N11000W 2600N11000W 2500N11000W 2400N11000W MMSD

ID Type Via Altitude Latitude Longitude Leg Dist Tot Dist Heading (true) Name
O KSAN APT - 0 ft / 0 m 32.73356˚ -117.18966˚ - 0 nm - San Diego Intl
3100N11500W LATLON - 35,000 ft / 10,668 m 31.00000˚ -115.00000˚ 152 nm 152 nm 132° / 134° -
2700N11000W LATLON - 35,000 ft / 10,668 m 27.00000˚ -110.00000˚ 355 nm 508 nm 131° / 134° -
2600N11000W LATLON - 34,000 ft / 10,363 m 26.00000˚ -110.00000˚ 60 nm 568 nm 180° / 180° -
2500N11000W LATLON - 24,200 ft / 7,376 m 25.00000˚ -110.00000˚ 60 nm 628 nm 180° / 180° -
2400N11000W LATLON - 10,400 ft / 3,170 m 24.00000˚ -110.00000˚ 60 nm 688 nm 180° / 180° -
O MMSD APT - 0 ft / 0 m 23.15185˚ -109.72104˚ 53 nm 741 nm 163° / 163° LOS CABOS INTL

Altitude Profile

Advertisement - Login to hide

Weather


0- 5 10 15 20 25 30 35+ Temperature / ° C

Clouds and Precipitation
Forecast for 2018-01-23 00:00 UTC. Updated 15 minutes ago

Ground ~20,000 ft ~40,000 ft Winds

KSAN

Details ICAO KSAN (SAN)
Name San Diego Intl
Region United States
Timezone America/Los_Angeles (UTC-8.0)
Stats Elevation 17 ft / 5 m (AMSL)
Location 32.733556° -117.189658°
Runways 1
Magnetic Variation 11.516° E

METAR

KSAN 222251Z 31009KT 10SM CLR 18/03 A3016 RMK AO2 SLP212 T01830028

Decode

TAF

KSAN 222106Z 2221/2324 30009KT P6SM FEW250 FM230100 VRB05KT P6SM SKC FM232100 31009KT P6SM SKC

Decode

Departure Runways

ID Width Length Bearing (true) Bearing (mag) Surface Threshold Offset Overrun Length
09 200 ft / 61 m 9,387 ft / 2,861 m 106.07° 94.55° Asphalt 699 ft / 213 m 269 ft / 82 m
27 200 ft / 61 m 9,387 ft / 2,861 m 286.08° 274.56° Asphalt 1,811 ft / 552 m 0 ft / 0 m

MMSD

Details ICAO MMSD (SJD)
Name LOS CABOS INTL
Region Mexico
Timezone America/Mazatlan (UTC-7.0)
Stats Elevation 374 ft / 114 m (AMSL)
Location 23.151850° -109.721044°
Runways 1
Magnetic Variation 8.317° E

METAR

MMSD 222247Z 34015KT 12SM SCT250 23/07 A2991 RMK 8/008

Decode

TAF

Not found

Destination Runways

ID Width Length Bearing (true) Bearing (mag) Surface Threshold Offset Overrun Length
16 148 ft / 45 m 9,857 ft / 3,004 m 173.75° 165.43° Asphalt 0 ft / 0 m 215 ft / 66 m
34 148 ft / 45 m 9,857 ft / 3,004 m 353.75° 345.43° Asphalt 0 ft / 0 m 200 ft / 61 m

Popular Alternatives